createdAt,value
2018-12-24T00:01:17.058Z,10.18
2018-12-24T00:04:08.801Z,10.18
2018-12-24T00:06:57.252Z,10.18
2018-12-24T00:09:44.936Z,10.11
2018-12-24T00:12:28.253Z,10.02
2018-12-24T00:15:57.890Z,10.16
2018-12-24T00:18:48.560Z,10.19
2018-12-24T00:21:39.138Z,10.21
2018-12-24T00:24:29.849Z,10.21
2018-12-24T00:27:22.513Z,10.22
2018-12-24T00:30:12.753Z,10.23
2018-12-24T00:33:03.009Z,10.23
2018-12-24T00:35:53.577Z,10.19
2018-12-24T00:38:44.270Z,10.25
2018-12-24T00:41:36.927Z,10.17
2018-12-24T00:53:05.887Z,10.33
2018-12-24T00:55:56.245Z,10.40
2018-12-24T00:58:27.471Z,10.37
2018-12-24T01:01:17.997Z,10.36
2018-12-24T01:04:01.318Z,10.34
2018-12-24T01:06:52.008Z,10.33
2018-12-24T01:09:42.619Z,10.33
2018-12-24T01:12:32.883Z,10.14
2018-12-24T01:15:23.478Z,10.13
2018-12-24T01:18:13.810Z,10.28
2018-12-24T01:21:04.368Z,10.18
2018-12-24T01:23:55.057Z,10.23
2018-12-24T01:26:45.599Z,10.21
2018-12-24T01:29:36.351Z,10.17
2018-12-24T01:32:26.741Z,10.19
2018-12-24T01:35:17.426Z,10.22
2018-12-24T01:38:00.805Z,10.05
2018-12-24T01:40:51.307Z,10.05
2018-12-24T01:43:42.035Z,10.20
2018-12-24T01:46:32.375Z,10.21
2018-12-24T01:49:22.945Z,10.12
2018-12-24T01:52:13.175Z,10.17
2018-12-24T01:55:03.349Z,10.17
2018-12-24T01:57:53.517Z,10.19
2018-12-24T02:00:43.771Z,10.19
2018-12-24T02:03:26.425Z,10.05
2018-12-24T02:06:36.185Z,10.23
2018-12-24T02:09:26.435Z,10.22
2018-12-24T02:12:16.662Z,10.19
2018-12-24T02:18:05.107Z,10.15
2018-12-24T02:20:55.286Z,10.18
2018-12-24T02:23:38.223Z,10.22
2018-12-24T02:26:28.405Z,10.25
2018-12-24T02:29:11.663Z,10.24
2018-12-24T02:32:01.824Z,10.27
2018-12-24T02:34:45.147Z,10.21
2018-12-24T02:37:35.343Z,10.19
2018-12-24T02:40:18.672Z,10.21
2018-12-24T02:43:01.915Z,10.12
2018-12-24T02:45:52.139Z,10.24
2018-12-24T02:48:42.383Z,10.11
2018-12-24T02:51:32.554Z,10.24
2018-12-24T02:54:22.725Z,10.24
2018-12-24T02:57:12.903Z,10.27
2018-12-24T02:59:58.099Z,10.25
2018-12-24T03:02:48.290Z,10.21
2018-12-24T03:05:30.742Z,10.23
2018-12-24T03:08:20.908Z,10.21
2018-12-24T03:11:03.617Z,10.15
2018-12-24T03:13:53.836Z,10.18
2018-12-24T03:16:37.473Z,10.18
2018-12-24T03:19:27.685Z,10.15
2018-12-24T03:22:10.537Z,10.02
2018-12-24T03:25:01.030Z,10.11
2018-12-24T03:27:44.053Z,10.14
2018-12-24T03:30:34.253Z,10.17
2018-12-24T03:33:17.322Z,10.19
2018-12-24T03:36:07.488Z,10.19
2018-12-24T03:38:49.813Z,10.21
2018-12-24T03:41:39.990Z,10.22
2018-12-24T03:44:30.172Z,10.18
2018-12-24T03:47:17.189Z,10.18
2018-12-24T03:50:00.479Z,10.19
2018-12-24T03:55:54.890Z,10.25
2018-12-24T03:58:38.326Z,10.25
2018-12-24T04:01:21.604Z,10.27
2018-12-24T04:04:04.366Z,10.25
2018-12-24T04:06:54.564Z,10.22
2018-12-24T04:09:44.916Z,10.29
2018-12-24T04:12:35.156Z,10.30
2018-12-24T04:15:18.506Z,10.23
2018-12-24T04:18:08.832Z,10.33
2018-12-24T04:20:59.644Z,10.32
2018-12-24T04:23:49.901Z,10.32
2018-12-24T04:26:40.126Z,10.32
2018-12-24T04:29:30.352Z,10.30
2018-12-24T04:35:24.600Z,10.27
2018-12-24T04:38:11.669Z,10.30
2018-12-24T04:40:54.274Z,10.30
2018-12-24T04:44:03.443Z,10.17
2018-12-24T04:46:53.631Z,10.31
2018-12-24T04:49:43.785Z,10.31
2018-12-24T04:52:34.008Z,10.35
2018-12-24T04:55:17.843Z,10.22
2018-12-24T04:58:08.021Z,10.28
2018-12-24T05:00:50.802Z,10.29
2018-12-24T05:09:19.702Z,10.34
2018-12-24T05:12:09.865Z,10.34
2018-12-24T05:15:00.268Z,10.36
2018-12-24T05:17:50.487Z,10.37
2018-12-24T05:20:40.829Z,10.25
2018-12-24T05:23:31.301Z,10.08
2018-12-24T05:26:21.451Z,8.86
2018-12-24T05:29:04.083Z,8.34
2018-12-24T05:31:54.428Z,8.26
2018-12-24T05:37:48.749Z,8.34
2018-12-24T05:40:31.779Z,8.34
2018-12-24T05:43:22.071Z,8.36
2018-12-24T05:46:12.289Z,8.41
2018-12-24T05:49:02.516Z,8.40
2018-12-24T05:51:53.085Z,8.49
2018-12-24T05:54:43.328Z,8.52
2018-12-24T05:57:33.556Z,8.64
2018-12-24T06:00:23.857Z,8.61
2018-12-24T06:03:14.010Z,8.55
2018-12-24T06:05:57.079Z,8.59
2018-12-24T06:08:47.300Z,8.52
2018-12-24T06:11:38.718Z,8.45
2018-12-24T06:14:28.962Z,8.29
2018-12-24T06:17:19.168Z,8.37
2018-12-24T06:20:09.352Z,8.31
2018-12-24T06:22:59.514Z,8.25
2018-12-24T06:25:42.820Z,8.27
2018-12-24T06:28:33.023Z,8.27
2018-12-24T06:31:16.280Z,8.31
2018-12-24T06:34:06.634Z,8.34
2018-12-24T06:36:57.354Z,8.39
2018-12-24T06:39:47.652Z,8.30
2018-12-24T06:42:37.830Z,8.42
2018-12-24T06:45:28.002Z,8.29
2018-12-24T06:48:18.208Z,8.41
2018-12-24T06:51:01.181Z,8.24
2018-12-24T06:53:51.373Z,8.38
2018-12-24T06:56:34.180Z,8.43
2018-12-24T06:59:24.328Z,8.25
2018-12-24T07:02:11.588Z,8.18
2018-12-24T07:05:01.785Z,7.91
2018-12-24T07:07:44.910Z,7.83
2018-12-24T07:10:35.076Z,7.74
2018-12-24T07:16:22.055Z,7.71
2018-12-24T07:19:12.219Z,7.69
2018-12-24T07:21:55.125Z,7.65
2018-12-24T07:24:45.329Z,7.59
2018-12-24T07:27:27.835Z,7.69
2018-12-24T07:30:18.005Z,7.56
2018-12-24T07:33:00.743Z,7.56
2018-12-24T07:35:50.922Z,7.56
2018-12-24T07:38:33.855Z,7.52
2018-12-24T07:41:24.003Z,7.15
2018-12-24T07:44:07.379Z,7.14
2018-12-24T07:46:57.620Z,6.99
2018-12-24T07:49:40.619Z,7.02
2018-12-24T07:52:30.807Z,6.92
2018-12-24T07:55:13.449Z,6.99
2018-12-24T07:58:03.686Z,7.00
2018-12-24T08:00:46.261Z,6.72
2018-12-24T08:03:36.431Z,6.77
2018-12-24T08:06:34.501Z,6.71
2018-12-24T08:09:25.177Z,6.64
2018-12-24T08:12:15.337Z,6.71
2018-12-24T08:14:58.483Z,6.64
2018-12-24T08:17:48.781Z,6.53
2018-12-24T08:20:39.153Z,6.44
2018-12-24T08:23:29.428Z,6.43
2018-12-24T08:26:20.485Z,6.37
2018-12-24T08:29:10.857Z,6.34
2018-12-24T08:32:01.105Z,6.39
2018-12-24T08:34:51.383Z,6.32
2018-12-24T08:37:41.881Z,6.21
2018-12-24T08:40:32.326Z,6.33
2018-12-24T08:43:22.555Z,6.29
2018-12-24T08:46:05.521Z,6.24
2018-12-24T08:48:55.755Z,6.27
2018-12-24T08:51:45.930Z,6.25
2018-12-24T08:54:36.149Z,6.25
2018-12-24T08:57:18.649Z,6.27
2018-12-24T09:00:08.990Z,6.25
2018-12-24T09:02:53.695Z,6.26
2018-12-24T09:05:44.017Z,6.12
2018-12-24T09:08:27.229Z,6.27
2018-12-24T09:11:17.409Z,6.31
2018-12-24T09:14:00.419Z,6.30
2018-12-24T09:16:51.404Z,6.21
2018-12-24T09:19:41.592Z,6.22
2018-12-24T09:25:25.654Z,6.04
2018-12-24T09:28:15.856Z,6.11
2018-12-24T09:30:59.619Z,6.10
2018-12-24T09:39:51.016Z,6.02
2018-12-24T09:42:33.774Z,6.04
2018-12-24T09:45:24.225Z,6.02
2018-12-24T09:48:14.468Z,6.00
2018-12-24T09:51:04.701Z,6.00
2018-12-24T09:53:55.074Z,5.99
2018-12-24T09:56:45.315Z,5.96
2018-12-24T09:59:35.601Z,5.98
2018-12-24T10:05:44.577Z,5.91
2018-12-24T10:08:34.817Z,5.96
2018-12-24T10:11:18.088Z,5.90
2018-12-24T10:14:08.421Z,5.94
2018-12-24T10:16:51.697Z,5.88
2018-12-24T10:19:41.915Z,5.87
2018-12-24T10:22:25.169Z,5.86
2018-12-24T10:24:56.433Z,5.87
2018-12-24T10:27:46.626Z,5.88
2018-12-24T10:30:29.880Z,5.92
2018-12-24T10:33:20.124Z,5.95
2018-12-24T10:36:10.338Z,6.13
2018-12-24T10:38:52.595Z,6.24
2018-12-24T10:42:01.837Z,6.37
2018-12-24T10:44:52.125Z,6.24
2018-12-24T10:47:42.289Z,6.29
2018-12-24T10:50:32.465Z,6.30
2018-12-24T10:53:22.619Z,6.32
2018-12-24T10:56:12.797Z,6.36
2018-12-24T10:59:03.035Z,6.40
2018-12-24T11:01:53.267Z,6.36
2018-12-24T11:04:43.503Z,6.25
2018-12-24T11:07:33.735Z,6.11
2018-12-24T11:10:23.973Z,6.20
2018-12-24T11:16:18.175Z,6.39
2018-12-24T11:19:02.429Z,6.35
2018-12-24T11:21:45.603Z,6.34
2018-12-24T11:24:35.829Z,6.37
2018-12-24T11:27:26.052Z,6.38
2018-12-24T11:29:57.233Z,6.54
2018-12-24T11:38:25.975Z,6.28
2018-12-24T11:41:16.146Z,6.42
2018-12-24T11:44:00.137Z,6.40
2018-12-24T11:46:50.305Z,6.54
2018-12-24T11:49:32.795Z,6.38
2018-12-24T11:52:22.961Z,6.47
2018-12-24T11:55:05.705Z,6.56
2018-12-24T11:57:55.877Z,6.52
2018-12-24T12:00:38.609Z,6.34
2018-12-24T12:03:28.820Z,6.27
2018-12-24T12:06:19.525Z,6.16
2018-12-24T12:12:07.190Z,6.03
2018-12-24T12:14:57.375Z,5.96
2018-12-24T12:17:40.737Z,6.26
2018-12-24T12:20:31.193Z,6.38
2018-12-24T12:23:14.218Z,6.46
2018-12-24T12:26:04.562Z,6.50
2018-12-24T12:28:47.410Z,6.40
2018-12-24T12:31:37.608Z,6.40
2018-12-24T12:34:20.433Z,6.40
2018-12-24T12:37:10.617Z,6.42
2018-12-24T12:39:54.987Z,6.36
2018-12-24T12:42:45.194Z,6.31
2018-12-24T12:45:28.315Z,6.17
2018-12-24T12:48:18.505Z,6.20
2018-12-24T12:51:05.655Z,6.22
2018-12-24T12:53:55.865Z,6.23
2018-12-24T12:56:39.107Z,6.34
2018-12-24T12:59:29.279Z,6.37
2018-12-24T13:02:12.444Z,6.32
2018-12-24T13:05:21.511Z,6.45
2018-12-24T13:08:04.735Z,6.29
2018-12-24T13:10:54.936Z,6.35
2018-12-24T13:13:37.410Z,6.31
2018-12-24T13:16:27.646Z,6.18
2018-12-24T13:19:11.003Z,5.91
2018-12-24T13:22:04.431Z,5.96
2018-12-24T13:24:45.652Z,5.98
2018-12-24T13:30:28.119Z,6.03
2018-12-24T13:33:19.191Z,6.12
2018-12-24T13:36:09.392Z,6.09
2018-12-24T13:38:59.598Z,6.15
2018-12-24T13:41:49.773Z,6.10
2018-12-24T13:47:19.880Z,6.13
2018-12-24T13:50:10.210Z,5.97
2018-12-24T13:53:00.630Z,5.87
2018-12-24T13:55:48.182Z,5.73
2018-12-24T13:58:19.409Z,5.67
2018-12-24T14:01:09.732Z,5.58
2018-12-24T14:03:53.380Z,5.63
2018-12-24T14:06:36.534Z,5.71
2018-12-24T14:09:27.213Z,5.78
2018-12-24T14:12:37.734Z,6.12
2018-12-24T14:15:28.034Z,6.32
2018-12-24T14:18:18.700Z,6.38
2018-12-24T14:21:09.932Z,6.42
2018-12-24T14:24:00.248Z,6.43
2018-12-24T14:26:50.817Z,6.47
2018-12-24T14:29:42.806Z,6.08
2018-12-24T14:32:33.114Z,5.95
2018-12-24T14:35:23.355Z,6.01
2018-12-24T14:38:13.528Z,6.21
2018-12-24T14:40:56.742Z,6.29
2018-12-24T14:43:47.282Z,6.28
2018-12-24T14:46:37.688Z,6.38
2018-12-24T14:49:27.929Z,6.14
2018-12-24T14:52:18.455Z,6.02
2018-12-24T14:55:11.041Z,5.82
2018-12-24T14:58:01.549Z,5.65
2018-12-24T15:00:52.145Z,5.63
2018-12-24T15:03:36.179Z,5.78
2018-12-24T15:06:20.775Z,5.71
2018-12-24T15:09:05.795Z,5.79
2018-12-24T15:11:56.125Z,5.87
2018-12-24T15:14:46.421Z,5.88
2018-12-24T15:17:36.740Z,5.91
2018-12-24T15:20:27.873Z,5.88
2018-12-24T15:23:18.747Z,5.75
2018-12-24T15:26:02.967Z,5.78
2018-12-24T15:28:53.206Z,5.91
2018-12-24T15:31:43.466Z,5.73
2018-12-24T15:34:33.617Z,5.63
2018-12-24T15:37:16.389Z,5.60
2018-12-24T15:40:06.639Z,5.59
2018-12-24T15:42:56.929Z,5.56
2018-12-24T15:45:47.507Z,5.49
2018-12-24T15:51:41.797Z,5.82
2018-12-24T15:57:17.309Z,5.85
2018-12-24T16:00:08.661Z,5.83
2018-12-24T16:02:58.906Z,5.81
2018-12-24T16:08:45.693Z,5.71
2018-12-24T16:11:35.907Z,5.62
2018-12-24T16:14:22.797Z,5.70
2018-12-24T16:17:13.039Z,5.68
2018-12-24T16:20:03.057Z,5.95
2018-12-24T16:22:55.698Z,5.91
2018-12-24T16:25:45.995Z,6.04
2018-12-24T16:28:28.817Z,6.05
2018-12-24T16:31:20.341Z,5.95
2018-12-24T16:34:10.645Z,5.93
2018-12-24T16:37:00.921Z,5.82
2018-12-24T16:39:53.187Z,5.80
2018-12-24T16:42:36.404Z,5.68
2018-12-24T16:45:19.802Z,5.67
2018-12-24T16:48:02.764Z,5.83
2018-12-24T16:50:53.044Z,5.67
2018-12-24T16:53:43.313Z,5.69
2018-12-24T16:56:33.596Z,5.77
2018-12-24T17:02:30.120Z,5.56
2018-12-24T17:05:13.493Z,5.65
2018-12-24T17:08:03.793Z,5.59
2018-12-24T17:10:54.018Z,5.55
2018-12-24T17:13:44.279Z,5.35
2018-12-24T17:19:39.647Z,5.50
2018-12-24T17:25:25.689Z,5.32
2018-12-24T17:28:16.209Z,5.36
2018-12-24T17:30:59.074Z,4.98
2018-12-24T17:33:49.331Z,4.80
2018-12-24T17:40:04.986Z,5.06
2018-12-24T17:42:47.450Z,4.86
2018-12-24T17:45:37.640Z,4.88
2018-12-24T17:48:20.542Z,4.84
2018-12-24T17:51:10.728Z,4.93
2018-12-24T17:53:53.277Z,4.95
2018-12-24T17:56:43.450Z,4.87
2018-12-24T17:59:26.528Z,5.13
2018-12-24T18:02:16.720Z,5.15
2018-12-24T18:08:04.374Z,4.90
2018-12-24T18:10:54.588Z,5.11
2018-12-24T18:13:37.671Z,4.96
2018-12-24T18:16:28.184Z,4.95
2018-12-24T18:19:15.289Z,4.93
2018-12-24T18:22:05.483Z,4.99
2018-12-24T18:24:56.492Z,5.19
2018-12-24T18:27:40.102Z,5.36
2018-12-24T18:30:30.328Z,5.35
2018-12-24T18:33:20.927Z,5.45
2018-12-24T18:39:15.671Z,5.22
2018-12-24T18:42:03.004Z,5.36
2018-12-24T18:44:45.600Z,5.40
2018-12-24T18:50:32.870Z,5.35
2018-12-24T18:53:23.028Z,5.30
2018-12-24T18:56:06.738Z,5.31
2018-12-24T18:58:56.984Z,5.32
2018-12-24T19:01:39.796Z,5.31
2018-12-24T19:04:30.834Z,5.47
2018-12-24T19:07:13.176Z,5.46
2018-12-24T19:10:03.731Z,5.47
2018-12-24T19:12:53.929Z,5.34
2018-12-24T19:15:37.294Z,5.40
2018-12-24T19:18:27.496Z,5.45
2018-12-24T19:21:17.818Z,5.44
2018-12-24T19:26:50.346Z,4.66
2018-12-24T19:29:40.506Z,4.23
2018-12-24T19:32:23.795Z,4.09
2018-12-24T19:35:32.999Z,3.87
2018-12-24T19:38:16.258Z,3.84
2018-12-24T19:41:06.434Z,3.99
2018-12-24T19:43:49.409Z,3.85
2018-12-24T19:46:39.649Z,3.95
2018-12-24T19:49:22.078Z,3.97
2018-12-24T19:52:12.607Z,3.98
2018-12-24T19:54:55.508Z,3.87
2018-12-24T19:57:45.680Z,3.90
2018-12-24T20:00:34.941Z,3.91
2018-12-24T20:06:21.917Z,4.05
2018-12-24T20:09:12.560Z,4.10
2018-12-24T20:11:55.611Z,4.26
2018-12-24T20:20:22.315Z,4.52
2018-12-24T20:23:12.471Z,4.50
2018-12-24T20:26:02.664Z,4.41
2018-12-24T20:28:52.861Z,4.39
2018-12-24T20:31:35.728Z,4.57
2018-12-24T20:34:25.902Z,4.71
2018-12-24T20:37:09.503Z,4.81
2018-12-24T20:39:59.841Z,4.87
2018-12-24T20:43:03.476Z,4.88
2018-12-24T20:51:45.479Z,4.82
2018-12-24T20:57:40.276Z,4.88
2018-12-24T21:00:23.773Z,4.94
2018-12-24T21:03:13.964Z,4.50
2018-12-24T21:06:04.172Z,4.55
2018-12-24T21:08:47.009Z,4.44
2018-12-24T21:14:28.209Z,4.37
2018-12-24T21:17:18.694Z,4.24
2018-12-24T21:23:05.645Z,4.28
2018-12-24T21:25:55.802Z,4.19
2018-12-24T21:34:49.704Z,3.83
2018-12-24T21:43:31.470Z,3.88
2018-12-24T21:49:22.616Z,3.62
2018-12-24T22:01:08.840Z,3.60
2018-12-24T22:03:59.108Z,3.57
2018-12-24T22:06:43.942Z,3.51
2018-12-24T22:12:28.681Z,3.47
2018-12-24T22:15:18.874Z,3.33
2018-12-24T22:18:02.936Z,3.29
2018-12-24T22:20:53.086Z,3.33
2018-12-24T22:35:22.312Z,2.40
2018-12-24T22:38:05.474Z,2.26
2018-12-24T22:40:55.813Z,2.03
2018-12-24T22:43:46.046Z,1.80
2018-12-24T22:49:33.336Z,2.04
2018-12-24T22:52:23.516Z,2.20
2018-12-24T22:55:08.470Z,2.38
2018-12-24T22:57:58.646Z,2.53
2018-12-24T23:07:00.899Z,2.70
2018-12-24T23:09:51.150Z,2.74
2018-12-24T23:12:41.446Z,2.75
2018-12-24T23:15:31.684Z,2.71
2018-12-24T23:18:21.932Z,2.54
2018-12-24T23:21:12.132Z,2.60
2018-12-24T23:27:06.280Z,2.70
2018-12-24T23:29:48.872Z,2.66
2018-12-24T23:32:39.200Z,2.48
2018-12-24T23:38:35.398Z,2.67
2018-12-24T23:41:19.363Z,2.34
2018-12-24T23:44:09.670Z,2.50
2018-12-24T23:47:00.122Z,2.55
2018-12-24T23:49:50.444Z,2.51
2018-12-24T23:52:40.746Z,2.39
2018-12-24T23:55:31.023Z,2.62
2018-12-24T23:58:21.252Z,2.40
